Bouthillier Airport

CRG3 · Quebec, 加拿大

罗盘
风向 的 风向 190°
风: 10 kt, 3 beaufort

添加一条跑道以查看侧风和逆风信息。

添置 跑道
0 1.000 2.000 3.000 4.000 5.000
BKN 3.900 ft
OVC 4.900 ft
SPECI CYHU 050405Z AUTO 19010KT 9SM BKN039 OVC049 00/M05 A3002 RMK SLP167

METAR Bouthillier Airport - CRG3

Bouthillier Airport是,加拿大中的小机场。 视场标高为45 ft。 该领域的国际民航组织标志是CRG3.

这份报告是针对2022年12月4日 23:05, 当地时间在Montréal / Saint-Hubert Airport进行的。

机场观察

风向为190°,速度为10 kt。

可见度为9 mi。

有碎云在3.900 ft的高度 和 乌云密布在4.900 ft的高度。 破损或更高的上限为3.900 ft。

温度为0 °C,阵风为-7 °C。 露点为-5 °C,相对湿度为69%。 海平面上的气压为30,02 inHg (QNH)。

白天

今天,太阳从07:17升起,在16:10降落。 这适用于Bouthillier Airport,世界夏令时可能有所不同。 当地时间与世界标准时间之间的时差为-5 小时。 当前,没有夏令时有效。

公司介绍

我们没有关于这个机场的公司信息。

体会

到Vliegles.nl去找飞行课程,跳伞和其他飞行体验。 浏览页面,了解Bouthillier Airport附近所有可用的活动。 你也可以使用搜索功能来寻找你所在地附近的特定飞行课程、跳伞或其他飞行体验。

乌云

3.900 ft BKN 碎云
4.900 ft OVC 乌云密布

温度 & 天气

温度 0 °C
露点 -5 °C
相对湿度 69%
风寒 -7 °C
Kp-index 0 (0-9)

评论

SLP167海平面压力为30,02 inHg (30,02 inHg)

白天

日出
07:17 (7:55)
中午
11:44
日落
16:10

小工具

你想在你的网站上有一个关于Bouthillier Airport的当前航空天气(METAR)的小部件吗?

显示HTML代码

我们和第三方通过cookies跟踪您在我们网站上的互联网行为。如果你继续,我们认为你同意我们的饼干政策